Lake Placid, NY

9:26 AM EDT on August 26, 2016 (GMT -0400)
Lake Placid, NY - Outer Averyville Lane | | Change Station

Elev 2037 ft 44.25 °N, 74.04 °W | Updated 4 seconds ago

Mostly Cloudy
Mostly Cloudy
67.8 °F
Feels Like 67.8 °F
N
6.8
Wind Variable Wind from West
Gusts 10.0 mph

Today
High -- | Low -- °F
--% Chance of Precip.
Yesterday
High -- | Low -- °F
Precip. -- in
Pressure 30.02 in
Visibility 10.0 miles
Clouds Mostly Cloudy 1200 ft
Mostly Cloudy 2100 ft
Dew Point 66 °F
Humidity 94%
Rainfall 0.33 in
Snow Depth Not available.
6:12 AM 7:41 PM
Waning Crescent, 34% visible
SPECI KSLK 261314Z AUTO VRB04KT 10SM BKN012 BKN021 21/18 A3002 RMK AO2 T02060178
Pressure 30.02 in
Visibility 10.0 miles
Clouds Mostly Cloudy 1200 ft
Mostly Cloudy 2100 ft
Dew Point 66 °F
Humidity 94%
Rainfall 0.33 in
Snow Depth Not available.
6:12 AM 7:41 PM
Waning Crescent, 34% visible
SPECI KSLK 261314Z AUTO VRB04KT 10SM BKN012 BKN021 21/18 A3002 RMK AO2 T02060178

10-Day Weather Forecast

Almanac

Astronomy

Aug. 26, 2016 Rise Set
Actual Time
Civil Twilight
Nautical Twilight
Astronomical Twilight
Moon
Length of Visible Light
Length of Day
Tomorrow will be .
, % of the Moon is Illuminated

Today's Extremes

State Highs State Lows

Community

WunderPhotos

Upload Photos

1,935,084 photos uploaded!

WunderBlog® & News

Nearby

Air Quality

  Air Quality AQ Index Pollutant
Not available.

Snow Depth

Station Depth Elevation

Earthquake Activity

City Distance Mag. Time & Date
Minimum magnitude displayed is 2.5.

Coastal Water Temperatures

Place Temperature

Stations

Nearby Weather Stations

Station Location Temp. Windchill Dew Point Humidity Wind Precip. Elev Updated Type
                   

Watches & Warnings

There are currently no watches in effect.